createdAt,value
2023-03-27T00:01:27.785Z,3.30
2023-03-27T00:03:55.592Z,3.30
2023-03-27T00:06:24.638Z,3.30
2023-03-27T00:08:51.760Z,3.30
2023-03-27T00:11:19.730Z,3.30
2023-03-27T00:13:49.427Z,3.10
2023-03-27T00:16:22.221Z,3.10
2023-03-27T00:18:49.274Z,3.10
2023-03-27T00:21:16.152Z,3.00
2023-03-27T00:23:42.924Z,3.00
2023-03-27T00:26:11.993Z,2.90
2023-03-27T00:28:39.214Z,2.80
2023-03-27T00:31:11.692Z,2.80
2023-03-27T00:33:38.937Z,2.80
2023-03-27T00:36:06.234Z,2.70
2023-03-27T00:38:33.939Z,2.70
2023-03-27T00:41:01.453Z,2.70
2023-03-27T00:43:36.525Z,2.70
2023-03-27T00:46:15.503Z,2.60
2023-03-27T00:48:47.069Z,2.50
2023-03-27T00:51:15.475Z,2.50
2023-03-27T00:53:43.846Z,2.50
2023-03-27T00:56:11.233Z,2.30
2023-03-27T00:58:46.852Z,2.30
2023-03-27T01:01:16.114Z,2.30
2023-03-27T01:03:47.443Z,2.30
2023-03-27T01:06:19.730Z,2.30
2023-03-27T01:08:48.145Z,2.20
2023-03-27T01:11:52.327Z,2.10
2023-03-27T01:14:23.707Z,2.10
2023-03-27T01:16:56.387Z,2.10
2023-03-27T01:19:45.091Z,2.00
2023-03-27T01:22:23.778Z,2.00
2023-03-27T01:25:28.150Z,2.00
2023-03-27T01:28:32.896Z,2.00
2023-03-27T01:31:30.454Z,2.00
2023-03-27T01:34:47.943Z,2.00
2023-03-27T01:37:41.154Z,1.90
2023-03-27T01:40:19.762Z,1.90
2023-03-27T01:43:00.734Z,1.80
2023-03-27T01:45:56.046Z,1.80
2023-03-27T01:48:34.063Z,1.70
2023-03-27T01:51:08.105Z,1.60
2023-03-27T01:53:46.601Z,1.50
2023-03-27T01:56:27.101Z,1.60
2023-03-27T01:59:03.921Z,1.50
2023-03-27T02:01:36.539Z,1.50
2023-03-27T02:04:07.529Z,1.40
2023-03-27T02:06:40.047Z,1.40
2023-03-27T02:09:15.865Z,1.40
2023-03-27T02:11:58.334Z,1.40
2023-03-27T02:14:33.755Z,1.30
2023-03-27T02:17:10.033Z,1.30
2023-03-27T02:19:53.027Z,1.20
2023-03-27T02:22:20.200Z,1.00
2023-03-27T02:25:23.256Z,1.10
2023-03-27T02:27:59.164Z,1.10
2023-03-27T02:30:32.521Z,1.10
2023-03-27T02:33:06.368Z,1.00
2023-03-27T02:36:00.416Z,1.00
2023-03-27T02:38:33.930Z,1.00
2023-03-27T02:41:28.021Z,1.10
2023-03-27T02:44:32.513Z,1.10
2023-03-27T02:47:13.127Z,1.20
2023-03-27T02:49:48.872Z,1.10
2023-03-27T02:52:31.762Z,1.30
2023-03-27T02:55:06.679Z,1.40
2023-03-27T02:57:39.101Z,1.30
2023-03-27T03:00:29.614Z,1.20
2023-03-27T03:03:13.852Z,1.30
2023-03-27T03:05:41.225Z,1.40
2023-03-27T03:08:10.503Z,1.40
2023-03-27T03:10:44.767Z,1.40
2023-03-27T03:13:13.234Z,1.40
2023-03-27T03:15:42.441Z,1.20
2023-03-27T03:18:09.486Z,1.20
2023-03-27T03:20:37.145Z,1.10
2023-03-27T03:23:05.323Z,1.10
2023-03-27T03:25:32.114Z,1.00
2023-03-27T03:27:59.872Z,0.90
2023-03-27T03:30:29.060Z,0.80
2023-03-27T03:33:01.796Z,0.80
2023-03-27T03:35:28.991Z,0.80
2023-03-27T03:37:57.728Z,0.70
2023-03-27T03:40:24.683Z,0.80
2023-03-27T03:42:56.747Z,0.90
2023-03-27T03:45:27.545Z,0.90
2023-03-27T03:47:54.509Z,1.00
2023-03-27T03:50:23.188Z,1.00
2023-03-27T03:52:49.985Z,0.90
2023-03-27T03:55:16.932Z,0.80
2023-03-27T03:57:47.536Z,0.80
2023-03-27T04:00:22.897Z,0.60
2023-03-27T04:02:55.897Z,0.50
2023-03-27T04:05:23.826Z,0.50
2023-03-27T04:07:56.349Z,0.50
2023-03-27T04:10:58.854Z,0.40
2023-03-27T04:13:57.781Z,0.50
2023-03-27T04:16:34.079Z,0.60
2023-03-27T04:19:07.781Z,0.40
2023-03-27T04:21:37.853Z,0.40
2023-03-27T04:24:07.361Z,0.40
2023-03-27T04:26:46.585Z,0.40
2023-03-27T04:29:34.089Z,0.30
2023-03-27T04:32:01.337Z,0.40
2023-03-27T04:34:41.006Z,0.40
2023-03-27T04:37:18.474Z,0.40
2023-03-27T04:40:13.851Z,0.30
2023-03-27T04:42:42.944Z,0.30
2023-03-27T04:45:17.155Z,0.20
2023-03-27T04:47:48.926Z,0.30
2023-03-27T04:50:16.561Z,0.40
2023-03-27T04:52:44.782Z,0.40
2023-03-27T04:55:12.326Z,0.30
2023-03-27T04:57:47.152Z,0.40
2023-03-27T05:00:17.052Z,0.40
2023-03-27T05:02:47.712Z,0.40
2023-03-27T05:05:30.002Z,0.40
2023-03-27T05:07:58.052Z,0.40
2023-03-27T05:10:26.226Z,0.40
2023-03-27T05:12:55.184Z,0.40
2023-03-27T05:15:23.799Z,0.40
2023-03-27T05:17:55.904Z,0.40
2023-03-27T05:20:25.495Z,0.40
2023-03-27T05:22:56.355Z,0.40
2023-03-27T05:25:27.496Z,0.40
2023-03-27T05:27:55.448Z,0.50
2023-03-27T05:30:26.721Z,0.50
2023-03-27T05:33:07.868Z,0.50
2023-03-27T05:35:35.262Z,0.50
2023-03-27T05:38:02.146Z,0.50
2023-03-27T05:40:43.322Z,0.50
2023-03-27T05:43:14.630Z,0.50
2023-03-27T05:45:42.104Z,0.60
2023-03-27T05:48:09.647Z,0.60
2023-03-27T05:50:41.590Z,0.60
2023-03-27T05:53:17.661Z,0.60
2023-03-27T05:56:03.265Z,0.60
2023-03-27T05:58:36.827Z,0.60
2023-03-27T06:01:03.822Z,0.70
2023-03-27T06:03:30.939Z,0.70
2023-03-27T06:06:06.858Z,0.70
2023-03-27T06:08:36.559Z,0.80
2023-03-27T06:11:09.875Z,0.80
2023-03-27T06:13:42.697Z,1.00
2023-03-27T06:16:11.817Z,1.00
2023-03-27T06:18:59.973Z,1.00
2023-03-27T06:21:27.742Z,1.00
2023-03-27T06:23:59.927Z,1.10
2023-03-27T06:26:28.285Z,1.10
2023-03-27T06:28:56.610Z,1.20
2023-03-27T06:31:24.354Z,1.30
2023-03-27T06:34:15.099Z,1.40
2023-03-27T06:37:03.545Z,1.50
2023-03-27T06:39:37.265Z,1.60
2023-03-27T06:42:04.375Z,1.80
2023-03-27T06:44:31.925Z,1.90
2023-03-27T06:47:19.007Z,2.00
2023-03-27T06:50:20.097Z,2.00
2023-03-27T06:52:48.245Z,2.00
2023-03-27T06:55:35.368Z,1.90
2023-03-27T06:58:03.278Z,2.00
2023-03-27T07:00:35.615Z,2.10
2023-03-27T07:03:15.085Z,2.10
2023-03-27T07:06:01.077Z,2.20
2023-03-27T07:08:34.108Z,2.20
2023-03-27T07:13:33.775Z,2.40
2023-03-27T07:16:04.413Z,2.50
2023-03-27T07:18:33.302Z,2.80
2023-03-27T07:21:00.666Z,2.90
2023-03-27T07:23:27.707Z,2.90
2023-03-27T07:26:01.803Z,3.10
2023-03-27T07:28:47.086Z,3.10
2023-03-27T07:31:29.920Z,3.30
2023-03-27T07:34:03.920Z,3.30
2023-03-27T07:36:51.026Z,3.30
2023-03-27T07:39:17.764Z,3.30
2023-03-27T07:41:45.131Z,3.10
2023-03-27T07:44:40.266Z,3.00
2023-03-27T07:47:09.053Z,3.00
2023-03-27T07:49:39.952Z,3.00
2023-03-27T07:52:09.092Z,3.10
2023-03-27T07:54:43.200Z,3.20
2023-03-27T07:57:11.663Z,3.30
2023-03-27T07:59:47.302Z,3.40
2023-03-27T08:02:24.920Z,3.50
2023-03-27T08:04:52.721Z,3.50
2023-03-27T08:07:21.599Z,3.50
2023-03-27T08:09:48.792Z,3.70
2023-03-27T08:12:16.051Z,3.90
2023-03-27T08:14:54.619Z,4.00
2023-03-27T08:17:27.462Z,4.10
2023-03-27T08:19:55.845Z,4.40
2023-03-27T08:22:24.714Z,4.50
2023-03-27T08:25:10.368Z,4.40
2023-03-27T08:27:38.427Z,4.50
2023-03-27T08:30:05.751Z,4.50
2023-03-27T08:32:38.607Z,4.50
2023-03-27T08:35:08.659Z,4.70
2023-03-27T08:37:35.741Z,4.50
2023-03-27T08:40:28.488Z,4.40
2023-03-27T08:43:39.593Z,4.50
2023-03-27T08:46:26.326Z,4.50
2023-03-27T08:49:15.015Z,4.60
2023-03-27T08:51:57.960Z,4.50
2023-03-27T08:54:30.069Z,4.50
2023-03-27T08:56:57.239Z,4.70
2023-03-27T08:59:30.166Z,4.70
2023-03-27T09:02:24.770Z,4.60
2023-03-27T09:05:02.547Z,4.70
2023-03-27T09:07:57.398Z,4.80
2023-03-27T09:10:49.585Z,4.90
2023-03-27T09:13:49.537Z,4.90
2023-03-27T09:16:31.996Z,4.70
2023-03-27T09:19:11.534Z,4.80
2023-03-27T09:21:46.852Z,4.90
2023-03-27T09:24:30.222Z,5.00
2023-03-27T09:27:18.566Z,4.90
2023-03-27T09:30:05.911Z,4.90
2023-03-27T09:32:46.916Z,5.00
2023-03-27T09:35:15.507Z,5.00
2023-03-27T09:37:42.779Z,5.30
2023-03-27T09:40:23.326Z,5.40
2023-03-27T09:43:06.164Z,5.50
2023-03-27T09:45:39.144Z,5.50
2023-03-27T09:48:14.815Z,5.60
2023-03-27T09:50:47.137Z,5.40
2023-03-27T09:53:39.712Z,5.50
2023-03-27T09:56:14.999Z,5.70
2023-03-27T09:58:49.396Z,5.60
2023-03-27T10:01:27.940Z,5.70
2023-03-27T10:04:00.245Z,5.50
2023-03-27T10:06:43.174Z,5.30
2023-03-27T10:09:30.843Z,5.50
2023-03-27T10:12:10.010Z,5.80
2023-03-27T10:14:42.214Z,6.00
2023-03-27T10:17:37.307Z,6.20
2023-03-27T10:20:17.492Z,6.20
2023-03-27T10:22:55.416Z,6.00
2023-03-27T10:25:31.032Z,6.00
2023-03-27T10:28:36.481Z,6.00
2023-03-27T10:31:32.064Z,5.90
2023-03-27T10:34:27.577Z,5.80
2023-03-27T10:37:30.498Z,5.70
2023-03-27T10:40:19.631Z,5.60
2023-03-27T10:42:50.806Z,5.60
2023-03-27T10:45:21.102Z,5.70
2023-03-27T10:47:56.487Z,5.60
2023-03-27T10:50:45.832Z,5.50
2023-03-27T10:53:40.405Z,5.30
2023-03-27T10:56:22.516Z,5.30
2023-03-27T10:59:08.595Z,5.50
2023-03-27T11:01:42.236Z,5.70
2023-03-27T11:04:42.095Z,5.70
2023-03-27T11:07:25.406Z,6.00
2023-03-27T11:10:12.750Z,6.10
2023-03-27T11:12:42.823Z,6.00
2023-03-27T11:15:22.275Z,6.00
2023-03-27T11:18:03.027Z,5.80
2023-03-27T11:20:44.298Z,5.70
2023-03-27T11:23:30.120Z,5.80
2023-03-27T11:26:37.107Z,5.70
2023-03-27T11:29:11.181Z,5.90
2023-03-27T11:31:53.551Z,6.00
2023-03-27T11:34:53.017Z,6.10
2023-03-27T11:37:59.486Z,6.10
2023-03-27T11:40:38.586Z,6.20
2023-03-27T11:43:05.603Z,6.20
2023-03-27T11:45:46.485Z,6.30
2023-03-27T11:48:24.729Z,6.30
2023-03-27T11:50:58.140Z,6.50
2023-03-27T11:53:51.911Z,6.70
2023-03-27T11:56:45.495Z,6.40
2023-03-27T11:59:28.350Z,4.50
2023-03-27T12:02:28.906Z,3.90
2023-03-27T12:05:05.800Z,3.40
2023-03-27T12:07:50.218Z,3.30
2023-03-27T12:10:29.152Z,3.40
2023-03-27T12:13:40.695Z,3.50
2023-03-27T12:16:43.287Z,3.70
2023-03-27T12:19:39.226Z,3.80
2023-03-27T12:22:50.130Z,4.00
2023-03-27T12:25:49.031Z,4.30
2023-03-27T12:28:41.211Z,4.40
2023-03-27T12:31:40.058Z,4.40
2023-03-27T12:34:30.550Z,4.70
2023-03-27T12:36:59.310Z,4.90
2023-03-27T12:39:27.944Z,5.10
2023-03-27T12:41:59.950Z,5.40
2023-03-27T12:45:11.965Z,5.60
2023-03-27T12:47:38.865Z,6.00
2023-03-27T12:50:27.325Z,6.20
2023-03-27T12:52:56.786Z,6.10
2023-03-27T12:55:34.250Z,5.70
2023-03-27T12:58:03.797Z,5.30
2023-03-27T13:01:00.265Z,3.70
2023-03-27T13:04:19.704Z,2.90
2023-03-27T13:07:18.912Z,2.70
2023-03-27T13:10:14.505Z,2.70
2023-03-27T13:12:52.496Z,3.10
2023-03-27T13:15:38.656Z,3.30
2023-03-27T13:18:32.423Z,3.40
2023-03-27T13:21:37.117Z,3.70
2023-03-27T13:24:11.460Z,4.10
2023-03-27T13:27:02.901Z,4.40
2023-03-27T13:29:36.024Z,4.50
2023-03-27T13:32:37.782Z,4.50
2023-03-27T13:35:31.564Z,4.50
2023-03-27T13:38:00.549Z,4.60
2023-03-27T13:40:39.712Z,4.80
2023-03-27T13:43:23.496Z,4.80
2023-03-27T13:45:59.992Z,4.90
2023-03-27T13:49:15.943Z,5.00
2023-03-27T13:52:33.261Z,5.10
2023-03-27T13:55:05.892Z,5.10
2023-03-27T13:58:23.849Z,5.20
2023-03-27T14:01:09.405Z,5.00
2023-03-27T14:03:57.642Z,5.00
2023-03-27T14:06:49.192Z,5.00
2023-03-27T14:09:35.524Z,5.10
2023-03-27T14:12:50.596Z,5.30
2023-03-27T14:16:22.875Z,5.40
2023-03-27T14:19:50.533Z,5.60
2023-03-27T14:22:53.451Z,5.80
2023-03-27T14:25:34.825Z,5.80
2023-03-27T14:28:49.400Z,5.90
2023-03-27T14:31:19.287Z,6.10
2023-03-27T14:34:03.276Z,6.00
2023-03-27T14:36:34.125Z,6.10
2023-03-27T14:39:16.954Z,6.10
2023-03-27T14:41:53.780Z,6.10
2023-03-27T14:44:21.349Z,5.90
2023-03-27T14:46:49.266Z,5.60
2023-03-27T14:49:23.339Z,5.60
2023-03-27T14:52:01.300Z,5.60
2023-03-27T14:54:55.549Z,5.50
2023-03-27T14:57:27.316Z,5.30
2023-03-27T14:59:57.679Z,5.30
2023-03-27T15:02:32.534Z,5.70
2023-03-27T15:05:08.394Z,5.80
2023-03-27T15:07:37.726Z,5.80
2023-03-27T15:10:26.389Z,5.60
2023-03-27T15:13:26.542Z,5.50
2023-03-27T15:15:59.383Z,5.40
2023-03-27T15:18:58.828Z,5.30
2023-03-27T15:21:49.237Z,5.40
2023-03-27T15:24:26.376Z,5.30
2023-03-27T15:26:55.991Z,5.50
2023-03-27T15:29:38.760Z,5.60
2023-03-27T15:32:11.187Z,5.50
2023-03-27T15:34:51.344Z,5.50
2023-03-27T15:37:23.235Z,5.50
2023-03-27T15:40:13.526Z,5.50
2023-03-27T15:42:47.961Z,5.70
2023-03-27T15:45:17.006Z,5.90
2023-03-27T15:47:45.455Z,5.90
2023-03-27T15:50:23.954Z,5.80
2023-03-27T15:52:52.789Z,5.60
2023-03-27T15:55:39.757Z,5.70
2023-03-27T15:58:16.511Z,5.70
2023-03-27T16:00:49.018Z,5.50
2023-03-27T16:03:21.231Z,5.30
2023-03-27T16:05:50.127Z,5.10
2023-03-27T16:08:35.591Z,5.00
2023-03-27T16:11:04.234Z,5.00
2023-03-27T16:13:41.860Z,5.10
2023-03-27T16:16:27.206Z,5.30
2023-03-27T16:18:54.293Z,5.30
2023-03-27T16:21:23.265Z,5.10
2023-03-27T16:23:49.984Z,5.00
2023-03-27T16:26:21.408Z,4.90
2023-03-27T16:28:48.304Z,4.90
2023-03-27T16:31:17.289Z,4.90
2023-03-27T16:33:45.562Z,4.90
2023-03-27T16:36:15.527Z,4.80
2023-03-27T16:38:43.930Z,4.90
2023-03-27T16:41:15.393Z,4.90
2023-03-27T16:43:43.243Z,4.90
2023-03-27T16:46:28.906Z,4.90
2023-03-27T16:48:56.640Z,5.00
2023-03-27T16:51:25.839Z,4.50
2023-03-27T16:53:55.650Z,4.00
2023-03-27T16:56:22.874Z,3.80
2023-03-27T16:58:49.778Z,3.90
2023-03-27T17:01:16.920Z,3.90
2023-03-27T17:03:46.530Z,3.90
2023-03-27T17:06:15.212Z,3.90
2023-03-27T17:08:42.586Z,4.00
2023-03-27T17:11:12.368Z,4.00
2023-03-27T17:13:43.529Z,4.00
2023-03-27T17:16:11.255Z,4.10
2023-03-27T17:18:38.409Z,4.30
2023-03-27T17:21:05.746Z,4.40
2023-03-27T17:23:32.792Z,4.50
2023-03-27T17:26:01.683Z,4.50
2023-03-27T17:28:29.204Z,4.50
2023-03-27T17:31:04.762Z,4.60
2023-03-27T17:33:32.783Z,4.40
2023-03-27T17:35:59.960Z,4.00
2023-03-27T17:38:27.689Z,3.80
2023-03-27T17:40:54.769Z,3.60
2023-03-27T17:43:21.808Z,3.50
2023-03-27T17:45:50.056Z,3.50
2023-03-27T17:48:16.834Z,3.50
2023-03-27T17:50:51.869Z,3.50
2023-03-27T17:53:26.583Z,3.60
2023-03-27T17:55:53.393Z,3.60
2023-03-27T17:58:22.038Z,3.70
2023-03-27T18:00:49.425Z,3.80
2023-03-27T18:03:16.553Z,3.80
2023-03-27T18:05:43.778Z,3.70
2023-03-27T18:08:13.586Z,3.60
2023-03-27T18:10:50.176Z,3.50
2023-03-27T18:13:20.650Z,3.40
2023-03-27T18:16:01.755Z,3.40
2023-03-27T18:18:30.070Z,3.40
2023-03-27T18:20:56.873Z,3.40
2023-03-27T18:23:23.681Z,3.40
2023-03-27T18:25:50.562Z,3.50
2023-03-27T18:28:17.354Z,3.60
2023-03-27T18:30:44.201Z,3.50
2023-03-27T18:33:11.572Z,3.50
2023-03-27T18:35:39.079Z,3.50
2023-03-27T18:38:06.514Z,3.50
2023-03-27T18:40:33.326Z,3.50
2023-03-27T18:43:00.138Z,3.30
2023-03-27T18:45:27.236Z,3.30
2023-03-27T18:47:54.308Z,3.30
2023-03-27T18:50:21.111Z,3.30
2023-03-27T18:52:48.957Z,3.30
2023-03-27T18:55:17.265Z,3.30
2023-03-27T18:57:45.200Z,3.30
2023-03-27T19:00:18.296Z,3.50
2023-03-27T19:02:49.143Z,3.60
2023-03-27T19:05:17.733Z,3.60
2023-03-27T19:07:45.309Z,3.60
2023-03-27T19:10:13.673Z,3.50
2023-03-27T19:12:40.448Z,3.50
2023-03-27T19:15:45.691Z,3.50
2023-03-27T19:18:31.610Z,3.50
2023-03-27T19:21:18.039Z,3.50
2023-03-27T19:23:48.834Z,3.50
2023-03-27T19:26:19.592Z,3.50
2023-03-27T19:28:49.615Z,3.50
2023-03-27T19:31:17.020Z,3.50
2023-03-27T19:33:43.897Z,3.30
2023-03-27T19:36:10.907Z,3.30
2023-03-27T19:38:38.523Z,3.10
2023-03-27T19:41:09.367Z,3.00
2023-03-27T19:43:36.217Z,3.00
2023-03-27T19:46:14.851Z,2.90
2023-03-27T19:48:44.309Z,2.90
2023-03-27T19:51:20.204Z,2.90
2023-03-27T19:53:50.612Z,3.00
2023-03-27T19:56:20.787Z,2.90
2023-03-27T19:58:47.709Z,2.90
2023-03-27T20:01:14.496Z,2.90
2023-03-27T20:03:41.550Z,2.80
2023-03-27T20:06:13.231Z,2.90
2023-03-27T20:08:42.088Z,2.80
2023-03-27T20:11:08.969Z,2.80
2023-03-27T20:13:48.828Z,2.70
2023-03-27T20:16:21.425Z,2.70
2023-03-27T20:18:55.226Z,2.70
2023-03-27T20:21:24.413Z,2.80
2023-03-27T20:23:53.675Z,2.90
2023-03-27T20:26:26.338Z,2.80
2023-03-27T20:29:00.996Z,2.80
2023-03-27T20:31:28.024Z,2.90
2023-03-27T20:33:55.724Z,3.00
2023-03-27T20:36:23.276Z,3.00
2023-03-27T20:38:52.932Z,3.00
2023-03-27T20:41:20.243Z,2.80
2023-03-27T20:43:48.781Z,2.80
2023-03-27T20:46:16.890Z,2.80
2023-03-27T20:48:54.186Z,2.80
2023-03-27T20:51:24.948Z,2.80
2023-03-27T20:53:57.289Z,2.80
2023-03-27T20:56:24.311Z,2.70
2023-03-27T20:58:53.995Z,2.70
2023-03-27T21:01:20.892Z,2.70
2023-03-27T21:03:49.747Z,2.50
2023-03-27T21:06:19.855Z,2.60
2023-03-27T21:08:47.721Z,2.60
2023-03-27T21:11:15.125Z,2.70
2023-03-27T21:13:41.923Z,2.70
2023-03-27T21:16:09.469Z,2.70
2023-03-27T21:18:36.279Z,2.80
2023-03-27T21:21:03.417Z,2.80
2023-03-27T21:23:30.230Z,2.90
2023-03-27T21:25:57.687Z,3.00
2023-03-27T21:28:24.590Z,2.90
2023-03-27T21:30:51.320Z,2.80
2023-03-27T21:33:18.101Z,2.90
2023-03-27T21:35:48.623Z,2.80
2023-03-27T21:38:17.353Z,2.90
2023-03-27T21:40:46.901Z,2.90
2023-03-27T21:43:13.717Z,2.80
2023-03-27T21:45:40.520Z,2.80
2023-03-27T21:48:07.694Z,2.80
2023-03-27T21:50:34.811Z,2.80
2023-03-27T21:53:01.741Z,2.80
2023-03-27T21:55:30.062Z,2.70
2023-03-27T21:57:59.480Z,2.70
2023-03-27T22:00:27.011Z,2.70
2023-03-27T22:02:53.905Z,2.80
2023-03-27T22:05:20.726Z,2.90
2023-03-27T22:07:47.577Z,2.90
2023-03-27T22:10:15.322Z,2.90
2023-03-27T22:12:42.289Z,3.00
2023-03-27T22:15:09.782Z,3.00
2023-03-27T22:17:37.149Z,2.90
2023-03-27T22:20:06.191Z,3.00
2023-03-27T22:22:36.292Z,2.90
2023-03-27T22:25:03.952Z,2.90
2023-03-27T22:27:30.977Z,2.90
2023-03-27T22:29:57.845Z,2.70
2023-03-27T22:32:24.670Z,2.70
2023-03-27T22:34:51.527Z,2.80
2023-03-27T22:37:20.078Z,2.80
2023-03-27T22:39:47.315Z,2.70
2023-03-27T22:42:14.319Z,2.80
2023-03-27T22:44:41.098Z,2.80
2023-03-27T22:47:07.926Z,2.70
2023-03-27T22:49:36.166Z,2.70
2023-03-27T22:52:04.313Z,2.70
2023-03-27T22:54:31.197Z,2.70
2023-03-27T22:56:59.078Z,2.50
2023-03-27T22:59:26.026Z,2.50
2023-03-27T23:01:52.955Z,2.50
2023-03-27T23:04:19.800Z,2.50
2023-03-27T23:06:46.526Z,2.50
2023-03-27T23:09:13.440Z,2.50
2023-03-27T23:11:40.321Z,2.50
2023-03-27T23:14:07.188Z,2.50
2023-03-27T23:16:33.895Z,2.50
2023-03-27T23:19:00.840Z,2.50
2023-03-27T23:21:27.703Z,2.50
2023-03-27T23:23:54.726Z,2.50
2023-03-27T23:26:21.579Z,2.60
2023-03-27T23:28:48.659Z,2.70
2023-03-27T23:31:20.063Z,2.70
2023-03-27T23:33:49.229Z,2.60
2023-03-27T23:36:19.289Z,2.50
2023-03-27T23:38:46.443Z,2.50
2023-03-27T23:41:14.911Z,2.40
2023-03-27T23:43:41.875Z,2.30
2023-03-27T23:46:10.463Z,2.20
2023-03-27T23:48:42.187Z,2.30
2023-03-27T23:51:10.236Z,2.40
2023-03-27T23:53:37.339Z,2.30
2023-03-27T23:56:04.494Z,2.40
2023-03-27T23:58:34.209Z,2.40
